sensor_id;sensor_type;location;lat;lon;timestamp;pressure;altitude;pressure_sealevel;temperature;humidity
41686;BME280;27370;42.764;23.432;2023-02-10T00:01:28;97412.44;;;-8.54;100.00
41686;BME280;27370;42.764;23.432;2023-02-10T00:03:53;97417.03;;;-8.61;100.00
41686;BME280;27370;42.764;23.432;2023-02-10T00:06:20;97423.22;;;-9.01;100.00
41686;BME280;27370;42.764;23.432;2023-02-10T00:08:51;97419.00;;;-8.85;100.00
41686;BME280;27370;42.764;23.432;2023-02-10T00:11:18;97414.69;;;-9.08;100.00
41686;BME280;27370;42.764;23.432;2023-02-10T00:13:44;97406.22;;;-8.98;100.00
41686;BME280;27370;42.764;23.432;2023-02-10T00:16:12;97417.91;;;-8.89;100.00
41686;BME280;27370;42.764;23.432;2023-02-10T00:18:38;97389.81;;;-9.05;100.00
41686;BME280;27370;42.764;23.432;2023-02-10T00:21:12;97407.09;;;-8.76;100.00
41686;BME280;27370;42.764;23.432;2023-02-10T00:23:38;97388.47;;;-8.91;100.00
41686;BME280;27370;42.764;23.432;2023-02-10T00:26:05;97411.44;;;-9.15;100.00
41686;BME280;27370;42.764;23.432;2023-02-10T00:28:32;97410.88;;;-9.17;100.00
41686;BME280;27370;42.764;23.432;2023-02-10T00:30:59;97398.69;;;-9.51;100.00
41686;BME280;27370;42.764;23.432;2023-02-10T00:33:24;97396.03;;;-9.40;100.00
41686;BME280;27370;42.764;23.432;2023-02-10T00:35:50;97388.41;;;-9.41;100.00
41686;BME280;27370;42.764;23.432;2023-02-10T00:38:16;97387.63;;;-9.42;100.00
41686;BME280;27370;42.764;23.432;2023-02-10T00:40:41;97392.38;;;-9.39;100.00
41686;BME280;27370;42.764;23.432;2023-02-10T00:43:07;97388.72;;;-9.38;100.00
41686;BME280;27370;42.764;23.432;2023-02-10T00:45:32;97392.47;;;-9.34;100.00
41686;BME280;27370;42.764;23.432;2023-02-10T00:47:57;97390.97;;;-9.30;100.00
41686;BME280;27370;42.764;23.432;2023-02-10T00:50:23;97387.53;;;-9.30;100.00
41686;BME280;27370;42.764;23.432;2023-02-10T00:52:49;97387.69;;;-9.37;100.00
41686;BME280;27370;42.764;23.432;2023-02-10T00:55:14;97380.72;;;-9.31;100.00
41686;BME280;27370;42.764;23.432;2023-02-10T00:57:40;97366.88;;;-9.43;100.00
41686;BME280;27370;42.764;23.432;2023-02-10T01:00:06;97376.66;;;-9.39;100.00
41686;BME280;27370;42.764;23.432;2023-02-10T01:02:32;97373.00;;;-9.38;100.00
41686;BME280;27370;42.764;23.432;2023-02-10T01:04:59;97374.34;;;-9.35;100.00
41686;BME280;27370;42.764;23.432;2023-02-10T01:07:24;97377.44;;;-9.38;100.00
41686;BME280;27370;42.764;23.432;2023-02-10T01:09:51;97374.66;;;-9.32;100.00
41686;BME280;27370;42.764;23.432;2023-02-10T01:12:17;97372.84;;;-9.31;100.00
41686;BME280;27370;42.764;23.432;2023-02-10T01:14:42;97368.31;;;-9.36;100.00
41686;BME280;27370;42.764;23.432;2023-02-10T01:17:08;97364.03;;;-9.42;100.00
41686;BME280;27370;42.764;23.432;2023-02-10T01:19:33;97366.88;;;-9.43;100.00
41686;BME280;27370;42.764;23.432;2023-02-10T01:21:59;97364.41;;;-9.50;100.00
41686;BME280;27370;42.764;23.432;2023-02-10T01:24:24;97369.63;;;-9.78;100.00
41686;BME280;27370;42.764;23.432;2023-02-10T01:26:50;97367.94;;;-9.84;100.00
41686;BME280;27370;42.764;23.432;2023-02-10T01:29:15;97367.81;;;-9.78;100.00
41686;BME280;27370;42.764;23.432;2023-02-10T01:31:41;97359.13;;;-9.78;100.00
41686;BME280;27370;42.764;23.432;2023-02-10T01:34:06;97356.25;;;-9.94;100.00
41686;BME280;27370;42.764;23.432;2023-02-10T01:36:35;97358.75;;;-9.99;100.00
41686;BME280;27370;42.764;23.432;2023-02-10T01:39:01;97354.22;;;-10.03;100.00
41686;BME280;27370;42.764;23.432;2023-02-10T01:41:29;97357.84;;;-10.04;100.00
41686;BME280;27370;42.764;23.432;2023-02-10T01:46:30;97349.06;;;-9.98;100.00
41686;BME280;27370;42.764;23.432;2023-02-10T01:48:57;97350.41;;;-9.96;100.00
41686;BME280;27370;42.764;23.432;2023-02-10T01:51:31;97334.88;;;-10.14;100.00
41686;BME280;27370;42.764;23.432;2023-02-10T01:53:58;97346.63;;;-10.16;100.00
41686;BME280;27370;42.764;23.432;2023-02-10T01:56:24;97344.75;;;-10.04;100.00
41686;BME280;27370;42.764;23.432;2023-02-10T01:58:49;97331.09;;;-10.06;100.00
41686;BME280;27370;42.764;23.432;2023-02-10T02:01:16;97337.94;;;-10.05;100.00
41686;BME280;27370;42.764;23.432;2023-02-10T02:03:42;97325.22;;;-10.13;100.00
41686;BME280;27370;42.764;23.432;2023-02-10T02:06:08;97333.56;;;-10.00;100.00
41686;BME280;27370;42.764;23.432;2023-02-10T02:08:34;97329.03;;;-10.04;100.00
41686;BME280;27370;42.764;23.432;2023-02-10T02:11:21;97332.31;;;-10.26;100.00
41686;BME280;27370;42.764;23.432;2023-02-10T02:31:26;97321.97;;;-10.32;100.00
41686;BME280;27370;42.764;23.432;2023-02-10T02:36:50;97296.03;;;-10.45;100.00
41686;BME280;27370;42.764;23.432;2023-02-10T02:39:17;97308.31;;;-10.34;100.00
41686;BME280;27370;42.764;23.432;2023-02-10T02:41:43;97305.00;;;-10.30;100.00
41686;BME280;27370;42.764;23.432;2023-02-10T02:44:09;97294.53;;;-10.41;100.00
41686;BME280;27370;42.764;23.432;2023-02-10T02:49:13;97288.97;;;-10.33;100.00
41686;BME280;27370;42.764;23.432;2023-02-10T02:52:02;97292.00;;;-10.25;100.00
41686;BME280;27370;42.764;23.432;2023-02-10T02:59:45;97291.03;;;-10.35;100.00
41686;BME280;27370;42.764;23.432;2023-02-10T03:02:14;97298.38;;;-10.21;100.00
41686;BME280;27370;42.764;23.432;2023-02-10T03:04:41;97288.38;;;-10.07;100.00
41686;BME280;27370;42.764;23.432;2023-02-10T03:07:08;97301.75;;;-10.20;100.00
41686;BME280;27370;42.764;23.432;2023-02-10T03:09:35;97305.56;;;-10.28;100.00
41686;BME280;27370;42.764;23.432;2023-02-10T03:12:01;97297.06;;;-10.46;100.00
41686;BME280;27370;42.764;23.432;2023-02-10T03:14:26;97296.84;;;-10.45;100.00
41686;BME280;27370;42.764;23.432;2023-02-10T03:16:52;97299.13;;;-10.48;100.00
41686;BME280;27370;42.764;23.432;2023-02-10T03:19:17;97300.78;;;-10.31;100.00
41686;BME280;27370;42.764;23.432;2023-02-10T03:21:43;97298.59;;;-10.22;100.00
41686;BME280;27370;42.764;23.432;2023-02-10T03:24:09;97307.56;;;-10.18;100.00
41686;BME280;27370;42.764;23.432;2023-02-10T03:26:35;97298.28;;;-10.26;100.00
41686;BME280;27370;42.764;23.432;2023-02-10T03:29:01;97312.22;;;-10.20;100.00
41686;BME280;27370;42.764;23.432;2023-02-10T03:31:27;97310.63;;;-10.49;100.00
41686;BME280;27370;42.764;23.432;2023-02-10T03:33:53;97312.06;;;-10.42;100.00
41686;BME280;27370;42.764;23.432;2023-02-10T03:36:18;97311.88;;;-10.40;100.00
41686;BME280;27370;42.764;23.432;2023-02-10T03:38:44;97304.13;;;-10.35;100.00
41686;BME280;27370;42.764;23.432;2023-02-10T03:41:11;97304.78;;;-10.28;100.00
41686;BME280;27370;42.764;23.432;2023-02-10T03:43:37;97296.16;;;-10.40;100.00
41686;BME280;27370;42.764;23.432;2023-02-10T03:46:03;97294.72;;;-10.60;100.00
41686;BME280;27370;42.764;23.432;2023-02-10T03:48:29;97294.47;;;-10.70;100.00
41686;BME280;27370;42.764;23.432;2023-02-10T03:50:59;97290.63;;;-10.91;100.00
41686;BME280;27370;42.764;23.432;2023-02-10T03:53:26;97288.81;;;-10.90;100.00
41686;BME280;27370;42.764;23.432;2023-02-10T03:55:52;97300.63;;;-10.88;100.00
41686;BME280;27370;42.764;23.432;2023-02-10T03:58:18;97306.22;;;-10.96;100.00
41686;BME280;27370;42.764;23.432;2023-02-10T04:00:43;97293.50;;;-11.04;100.00
41686;BME280;27370;42.764;23.432;2023-02-10T04:03:09;97281.66;;;-11.06;100.00
41686;BME280;27370;42.764;23.432;2023-02-10T04:05:34;97292.91;;;-11.06;100.00
41686;BME280;27370;42.764;23.432;2023-02-10T04:08:00;97288.59;;;-11.00;100.00
41686;BME280;27370;42.764;23.432;2023-02-10T04:10:26;97284.84;;;-11.04;100.00
41686;BME280;27370;42.764;23.432;2023-02-10T04:12:52;97293.16;;;-11.07;100.00
41686;BME280;27370;42.764;23.432;2023-02-10T04:15:18;97287.91;;;-11.19;100.00
41686;BME280;27370;42.764;23.432;2023-02-10T04:17:43;97295.63;;;-11.24;100.00
41686;BME280;27370;42.764;23.432;2023-02-10T04:20:09;97283.25;;;-11.29;100.00
41686;BME280;27370;42.764;23.432;2023-02-10T04:22:35;97273.34;;;-11.27;100.00
41686;BME280;27370;42.764;23.432;2023-02-10T04:25:00;97289.72;;;-11.20;100.00
41686;BME280;27370;42.764;23.432;2023-02-10T04:27:26;97278.91;;;-11.23;100.00
41686;BME280;27370;42.764;23.432;2023-02-10T04:29:51;97285.16;;;-11.13;100.00
41686;BME280;27370;42.764;23.432;2023-02-10T04:32:17;97277.44;;;-11.19;100.00
41686;BME280;27370;42.764;23.432;2023-02-10T04:34:42;97284.50;;;-11.20;100.00
41686;BME280;27370;42.764;23.432;2023-02-10T04:37:08;97284.03;;;-11.17;100.00
41686;BME280;27370;42.764;23.432;2023-02-10T04:39:34;97277.78;;;-11.16;100.00
41686;BME280;27370;42.764;23.432;2023-02-10T04:41:59;97281.09;;;-11.08;100.00
41686;BME280;27370;42.764;23.432;2023-02-10T04:44:25;97291.44;;;-11.02;100.00
41686;BME280;27370;42.764;23.432;2023-02-10T04:46:50;97288.69;;;-10.95;100.00
41686;BME280;27370;42.764;23.432;2023-02-10T04:49:16;97281.66;;;-10.95;100.00
41686;BME280;27370;42.764;23.432;2023-02-10T04:51:42;97281.31;;;-10.98;100.00
41686;BME280;27370;42.764;23.432;2023-02-10T04:54:08;97293.25;;;-10.91;100.00
41686;BME280;27370;42.764;23.432;2023-02-10T04:56:33;97295.41;;;-10.88;100.00
41686;BME280;27370;42.764;23.432;2023-02-10T04:58:59;97292.00;;;-10.88;100.00
41686;BME280;27370;42.764;23.432;2023-02-10T05:01:25;97286.44;;;-11.03;100.00
41686;BME280;27370;42.764;23.432;2023-02-10T05:03:50;97299.41;;;-10.85;100.00
41686;BME280;27370;42.764;23.432;2023-02-10T05:06:16;97299.97;;;-10.83;100.00
41686;BME280;27370;42.764;23.432;2023-02-10T05:08:42;97319.53;;;-10.97;100.00
41686;BME280;27370;42.764;23.432;2023-02-10T05:11:12;97330.22;;;-10.99;100.00
41686;BME280;27370;42.764;23.432;2023-02-10T05:13:38;97324.63;;;-11.02;100.00
41686;BME280;27370;42.764;23.432;2023-02-10T05:16:06;97327.47;;;-11.16;100.00
41686;BME280;27370;42.764;23.432;2023-02-10T05:18:32;97324.84;;;-11.27;100.00
41686;BME280;27370;42.764;23.432;2023-02-10T05:20:59;97327.47;;;-11.16;100.00
41686;BME280;27370;42.764;23.432;2023-02-10T05:23:26;97325.19;;;-11.24;100.00
41686;BME280;27370;42.764;23.432;2023-02-10T05:25:52;97335.75;;;-11.30;100.00
41686;BME280;27370;42.764;23.432;2023-02-10T05:28:18;97333.56;;;-11.33;100.00
41686;BME280;27370;42.764;23.432;2023-02-10T05:30:43;97339.72;;;-11.28;100.00
41686;BME280;27370;42.764;23.432;2023-02-10T05:33:09;97344.50;;;-11.13;100.00
41686;BME280;27370;42.764;23.432;2023-02-10T05:35:34;97341.78;;;-11.18;100.00
41686;BME280;27370;42.764;23.432;2023-02-10T05:38:00;97352.13;;;-11.12;100.00
41686;BME280;27370;42.764;23.432;2023-02-10T05:40:29;97359.09;;;-11.05;100.00
41686;BME280;27370;42.764;23.432;2023-02-10T05:42:54;97356.03;;;-11.02;100.00
41686;BME280;27370;42.764;23.432;2023-02-10T05:45:20;97357.84;;;-11.03;100.00
41686;BME280;27370;42.764;23.432;2023-02-10T05:47:46;97353.75;;;-10.99;100.00
41686;BME280;27370;42.764;23.432;2023-02-10T05:50:11;97361.47;;;-10.92;100.00
41686;BME280;27370;42.764;23.432;2023-02-10T05:52:37;97355.94;;;-10.84;100.00
41686;BME280;27370;42.764;23.432;2023-02-10T05:55:03;97357.28;;;-10.70;100.00
41686;BME280;27370;42.764;23.432;2023-02-10T05:57:28;97368.31;;;-10.44;100.00
41686;BME280;27370;42.764;23.432;2023-02-10T05:59:54;97370.47;;;-10.41;100.00
41686;BME280;27370;42.764;23.432;2023-02-10T06:02:19;97363.72;;;-10.26;100.00
41686;BME280;27370;42.764;23.432;2023-02-10T06:04:45;97368.72;;;-10.12;100.00
41686;BME280;27370;42.764;23.432;2023-02-10T06:07:11;97356.47;;;-9.95;100.00
41686;BME280;27370;42.764;23.432;2023-02-10T06:09:36;97370.53;;;-9.73;100.00
41686;BME280;27370;42.764;23.432;2023-02-10T06:12:02;97359.53;;;-9.86;100.00
41686;BME280;27370;42.764;23.432;2023-02-10T06:14:29;97382.16;;;-9.80;100.00
41686;BME280;27370;42.764;23.432;2023-02-10T06:16:54;97384.44;;;-9.72;100.00
41686;BME280;27370;42.764;23.432;2023-02-10T06:19:20;97393.22;;;-9.78;100.00
41686;BME280;27370;42.764;23.432;2023-02-10T06:21:45;97391.13;;;-9.65;100.00
41686;BME280;27370;42.764;23.432;2023-02-10T06:24:11;97389.28;;;-9.36;100.00
41686;BME280;27370;42.764;23.432;2023-02-10T06:26:36;97379.69;;;-9.30;100.00
41686;BME280;27370;42.764;23.432;2023-02-10T06:29:02;97396.50;;;-9.14;100.00
41686;BME280;27370;42.764;23.432;2023-02-10T06:31:27;97392.91;;;-9.25;100.00
41686;BME280;27370;42.764;23.432;2023-02-10T06:33:53;97393.63;;;-9.13;100.00
41686;BME280;27370;42.764;23.432;2023-02-10T06:36:18;97398.09;;;-8.97;100.00
41686;BME280;27370;42.764;23.432;2023-02-10T06:38:44;97393.56;;;-8.84;100.00
41686;BME280;27370;42.764;23.432;2023-02-10T06:41:09;97395.50;;;-8.80;100.00
41686;BME280;27370;42.764;23.432;2023-02-10T06:43:36;97402.31;;;-8.45;100.00
41686;BME280;27370;42.764;23.432;2023-02-10T06:46:01;97385.81;;;-8.41;100.00
41686;BME280;27370;42.764;23.432;2023-02-10T06:48:27;97396.88;;;-8.17;100.00
41686;BME280;27370;42.764;23.432;2023-02-10T06:50:52;97393.19;;;-7.99;100.00
41686;BME280;27370;42.764;23.432;2023-02-10T06:53:19;97408.38;;;-7.84;100.00
41686;BME280;27370;42.764;23.432;2023-02-10T06:55:45;97410.44;;;-7.64;100.00
41686;BME280;27370;42.764;23.432;2023-02-10T06:58:11;97402.53;;;-7.43;100.00
41686;BME280;27370;42.764;23.432;2023-02-10T07:00:37;97401.06;;;-7.33;100.00
41686;BME280;27370;42.764;23.432;2023-02-10T07:03:03;97420.13;;;-7.21;100.00
41686;BME280;27370;42.764;23.432;2023-02-10T07:05:28;97408.31;;;-7.19;100.00
41686;BME280;27370;42.764;23.432;2023-02-10T07:07:54;97409.16;;;-7.13;100.00
41686;BME280;27370;42.764;23.432;2023-02-10T07:10:20;97406.16;;;-6.95;100.00
41686;BME280;27370;42.764;23.432;2023-02-10T07:12:48;97404.44;;;-6.79;100.00
41686;BME280;27370;42.764;23.432;2023-02-10T07:15:13;97401.16;;;-6.64;100.00
41686;BME280;27370;42.764;23.432;2023-02-10T07:17:39;97403.38;;;-6.83;100.00
41686;BME280;27370;42.764;23.432;2023-02-10T07:20:05;97394.47;;;-6.77;100.00
41686;BME280;27370;42.764;23.432;2023-02-10T07:22:31;97394.31;;;-6.60;100.00
41686;BME280;27370;42.764;23.432;2023-02-10T07:24:58;97396.94;;;-6.65;100.00
41686;BME280;27370;42.764;23.432;2023-02-10T07:27:24;97398.88;;;-6.56;100.00
41686;BME280;27370;42.764;23.432;2023-02-10T07:29:49;97403.19;;;-6.34;100.00
41686;BME280;27370;42.764;23.432;2023-02-10T07:32:15;97404.81;;;-6.33;100.00
41686;BME280;27370;42.764;23.432;2023-02-10T07:34:40;97398.59;;;-6.12;100.00
41686;BME280;27370;42.764;23.432;2023-02-10T07:37:07;97396.91;;;-5.76;100.00
41686;BME280;27370;42.764;23.432;2023-02-10T07:39:32;97396.19;;;-5.56;100.00
41686;BME280;27370;42.764;23.432;2023-02-10T07:41:58;97392.25;;;-5.43;100.00
41686;BME280;27370;42.764;23.432;2023-02-10T07:44:33;97399.72;;;-5.25;100.00
41686;BME280;27370;42.764;23.432;2023-02-10T07:46:58;97397.09;;;-5.20;100.00
41686;BME280;27370;42.764;23.432;2023-02-10T07:49:24;97391.00;;;-5.31;100.00
41686;BME280;27370;42.764;23.432;2023-02-10T07:51:52;97394.69;;;-5.21;100.00
41686;BME280;27370;42.764;23.432;2023-02-10T07:54:17;97391.25;;;-5.27;100.00
41686;BME280;27370;42.764;23.432;2023-02-10T07:56:43;97393.41;;;-5.04;100.00
41686;BME280;27370;42.764;23.432;2023-02-10T07:59:08;97403.44;;;-5.11;100.00
41686;BME280;27370;42.764;23.432;2023-02-10T08:01:34;97404.50;;;-5.12;100.00
41686;BME280;27370;42.764;23.432;2023-02-10T08:04:05;97394.47;;;-5.05;100.00
41686;BME280;27370;42.764;23.432;2023-02-10T08:06:31;97390.78;;;-5.04;100.00
41686;BME280;27370;42.764;23.432;2023-02-10T08:08:57;97383.69;;;-4.93;100.00
41686;BME280;27370;42.764;23.432;2023-02-10T08:11:22;97391.59;;;-4.93;100.00
41686;BME280;27370;42.764;23.432;2023-02-10T08:13:48;97384.19;;;-4.86;100.00
41686;BME280;27370;42.764;23.432;2023-02-10T08:16:13;97390.00;;;-4.53;100.00
41686;BME280;27370;42.764;23.432;2023-02-10T08:18:40;97386.06;;;-4.66;100.00
41686;BME280;27370;42.764;23.432;2023-02-10T08:21:06;97383.16;;;-4.59;100.00
41686;BME280;27370;42.764;23.432;2023-02-10T08:23:32;97381.28;;;-4.59;100.00
41686;BME280;27370;42.764;23.432;2023-02-10T08:25:58;97382.56;;;-4.31;100.00
41686;BME280;27370;42.764;23.432;2023-02-10T08:28:23;97388.16;;;-4.43;100.00
41686;BME280;27370;42.764;23.432;2023-02-10T08:30:49;97379.69;;;-4.24;100.00
41686;BME280;27370;42.764;23.432;2023-02-10T08:33:14;97388.44;;;-4.44;100.00
41686;BME280;27370;42.764;23.432;2023-02-10T08:35:40;97391.34;;;-4.56;100.00
41686;BME280;27370;42.764;23.432;2023-02-10T08:38:07;97394.47;;;-4.13;100.00
41686;BME280;27370;42.764;23.432;2023-02-10T08:40:37;97392.56;;;-3.97;100.00
41686;BME280;27370;42.764;23.432;2023-02-10T08:43:03;97377.91;;;-3.64;100.00
41686;BME280;27370;42.764;23.432;2023-02-10T08:45:28;97378.91;;;-3.50;100.00
41686;BME280;27370;42.764;23.432;2023-02-10T08:47:53;97377.59;;;-3.53;100.00
41686;BME280;27370;42.764;23.432;2023-02-10T08:50:19;97385.47;;;-3.37;100.00
41686;BME280;27370;42.764;23.432;2023-02-10T08:52:45;97385.06;;;-3.11;100.00
41686;BME280;27370;42.764;23.432;2023-02-10T08:55:10;97378.41;;;-3.08;100.00
41686;BME280;27370;42.764;23.432;2023-02-10T08:57:37;97375.53;;;-2.78;100.00
41686;BME280;27370;42.764;23.432;2023-02-10T09:00:05;97372.75;;;-2.57;100.00
41686;BME280;27370;42.764;23.432;2023-02-10T09:02:31;97366.72;;;-2.10;100.00
41686;BME280;27370;42.764;23.432;2023-02-10T09:04:57;97360.28;;;-2.28;100.00
41686;BME280;27370;42.764;23.432;2023-02-10T09:07:22;97362.13;;;-1.99;100.00
41686;BME280;27370;42.764;23.432;2023-02-10T09:09:48;97365.00;;;-1.96;100.00
41686;BME280;27370;42.764;23.432;2023-02-10T09:12:14;97365.16;;;-2.11;100.00
41686;BME280;27370;42.764;23.432;2023-02-10T09:14:40;97362.19;;;-1.80;100.00
41686;BME280;27370;42.764;23.432;2023-02-10T09:17:06;97368.22;;;-1.75;100.00
41686;BME280;27370;42.764;23.432;2023-02-10T09:19:37;97359.03;;;-1.64;100.00
41686;BME280;27370;42.764;23.432;2023-02-10T09:22:04;97362.88;;;-1.51;100.00
41686;BME280;27370;42.764;23.432;2023-02-10T09:24:30;97362.97;;;-1.37;100.00
41686;BME280;27370;42.764;23.432;2023-02-10T09:26:56;97364.91;;;-1.43;100.00
41686;BME280;27370;42.764;23.432;2023-02-10T09:29:22;97356.19;;;-2.15;100.00
41686;BME280;27370;42.764;23.432;2023-02-10T09:31:47;97360.28;;;-2.04;100.00
41686;BME280;27370;42.764;23.432;2023-02-10T09:34:13;97349.84;;;-1.71;100.00
41686;BME280;27370;42.764;23.432;2023-02-10T09:36:38;97352.41;;;-1.24;100.00
41686;BME280;27370;42.764;23.432;2023-02-10T09:39:04;97345.06;;;-0.94;100.00
41686;BME280;27370;42.764;23.432;2023-02-10T09:44:18;97344.81;;;-0.60;92.56
41686;BME280;27370;42.764;23.432;2023-02-10T09:46:50;97337.25;;;-0.85;96.50
41686;BME280;27370;42.764;23.432;2023-02-10T09:54:39;97321.28;;;-0.53;95.74
41686;BME280;27370;42.764;23.432;2023-02-10T09:57:12;97319.97;;;-0.09;93.68
41686;BME280;27370;42.764;23.432;2023-02-10T09:59:38;97313.25;;;-0.07;95.54
41686;BME280;27370;42.764;23.432;2023-02-10T10:02:22;97311.28;;;0.13;98.47
41686;BME280;27370;42.764;23.432;2023-02-10T10:04:52;97316.31;;;0.14;88.40
41686;BME280;27370;42.764;23.432;2023-02-10T10:09:46;97293.91;;;-0.86;100.00
41686;BME280;27370;42.764;23.432;2023-02-10T10:12:17;97291.03;;;-0.57;92.06
41686;BME280;27370;42.764;23.432;2023-02-10T10:14:43;97289.31;;;-0.20;88.25
41686;BME280;27370;42.764;23.432;2023-02-10T10:25:30;97284.75;;;0.21;81.88
41686;BME280;27370;42.764;23.432;2023-02-10T10:31:54;97278.19;;;0.55;81.87
41686;BME280;27370;42.764;23.432;2023-02-10T10:34:15;97274.41;;;0.70;81.14
41686;BME280;27370;42.764;23.432;2023-02-10T10:36:43;97257.56;;;0.83;78.85
41686;BME280;27370;42.764;23.432;2023-02-10T10:39:38;97264.03;;;0.90;74.72
41686;BME280;27370;42.764;23.432;2023-02-10T10:42:42;97253.19;;;0.87;76.55
41686;BME280;27370;42.764;23.432;2023-02-10T10:45:40;97251.13;;;1.06;79.44
41686;BME280;27370;42.764;23.432;2023-02-10T10:48:19;97245.16;;;1.32;79.88
41686;BME280;27370;42.764;23.432;2023-02-10T10:50:50;97243.59;;;0.86;77.99
41686;BME280;27370;42.764;23.432;2023-02-10T10:53:28;97238.53;;;0.98;73.72
41686;BME280;27370;42.764;23.432;2023-02-10T10:55:57;97238.88;;;1.05;68.99
41686;BME280;27370;42.764;23.432;2023-02-10T10:58:26;97233.66;;;1.22;69.26
41686;BME280;27370;42.764;23.432;2023-02-10T11:00:55;97233.09;;;1.12;71.29
41686;BME280;27370;42.764;23.432;2023-02-10T11:03:21;97226.91;;;1.25;69.52
41686;BME280;27370;42.764;23.432;2023-02-10T11:08:30;97233.09;;;1.65;66.19
41686;BME280;27370;42.764;23.432;2023-02-10T11:11:00;97239.91;;;1.89;64.08
41686;BME280;27370;42.764;23.432;2023-02-10T11:13:27;97229.41;;;1.52;64.49
41686;BME280;27370;42.764;23.432;2023-02-10T11:18:30;97227.56;;;1.62;62.72
41686;BME280;27370;42.764;23.432;2023-02-10T11:21:15;97217.38;;;1.64;58.91
41686;BME280;27370;42.764;23.432;2023-02-10T11:23:49;97216.03;;;1.83;60.44
41686;BME280;27370;42.764;23.432;2023-02-10T11:26:19;97220.75;;;1.87;59.38
41686;BME280;27370;42.764;23.432;2023-02-10T11:28:45;97213.41;;;2.09;56.26
41686;BME280;27370;42.764;23.432;2023-02-10T11:33:57;97204.88;;;1.90;58.58
41686;BME280;27370;42.764;23.432;2023-02-10T11:36:36;97196.09;;;1.98;61.84
41686;BME280;27370;42.764;23.432;2023-02-10T11:39:05;97196.09;;;1.90;61.62
41686;BME280;27370;42.764;23.432;2023-02-10T11:41:31;97203.69;;;2.22;54.75
41686;BME280;27370;42.764;23.432;2023-02-10T11:43:59;97200.66;;;1.98;58.14
41686;BME280;27370;42.764;23.432;2023-02-10T11:46:27;97182.84;;;1.76;55.85
41686;BME280;27370;42.764;23.432;2023-02-10T11:49:03;97190.66;;;2.29;54.88
41686;BME280;27370;42.764;23.432;2023-02-10T11:51:29;97191.25;;;2.26;56.56
41686;BME280;27370;42.764;23.432;2023-02-10T11:53:56;97173.03;;;2.45;55.41
41686;BME280;27370;42.764;23.432;2023-02-10T11:56:44;97184.84;;;2.53;57.75
41686;BME280;27370;42.764;23.432;2023-02-10T12:11:06;97166.97;;;3.18;51.62
41686;BME280;27370;42.764;23.432;2023-02-10T12:19:36;97142.63;;;3.40;48.47
41686;BME280;27370;42.764;23.432;2023-02-10T12:22:16;97125.28;;;3.46;43.18
41686;BME280;27370;42.764;23.432;2023-02-10T12:25:00;97133.03;;;2.84;45.62
41686;BME280;27370;42.764;23.432;2023-02-10T12:33:01;97132.53;;;2.90;49.30
41686;BME280;27370;42.764;23.432;2023-02-10T12:44:02;97123.13;;;2.84;47.35
41686;BME280;27370;42.764;23.432;2023-02-10T12:51:59;97111.81;;;2.70;46.34
41686;BME280;27370;42.764;23.432;2023-02-10T12:57:43;97104.31;;;2.46;48.34
41686;BME280;27370;42.764;23.432;2023-02-10T13:00:15;97112.88;;;2.95;49.12
41686;BME280;27370;42.764;23.432;2023-02-10T13:05:18;97117.47;;;2.77;47.06
41686;BME280;27370;42.764;23.432;2023-02-10T13:12:52;97106.72;;;3.62;43.35
41686;BME280;27370;42.764;23.432;2023-02-10T13:17:52;97095.09;;;3.58;42.86
41686;BME280;27370;42.764;23.432;2023-02-10T13:23:48;97105.84;;;3.79;44.30
41686;BME280;27370;42.764;23.432;2023-02-10T13:29:16;97101.09;;;4.26;40.98
41686;BME280;27370;42.764;23.432;2023-02-10T13:34:25;97092.38;;;4.29;40.37
41686;BME280;27370;42.764;23.432;2023-02-10T13:36:56;97095.47;;;4.19;42.33
41686;BME280;27370;42.764;23.432;2023-02-10T13:39:26;97097.63;;;3.84;42.43
41686;BME280;27370;42.764;23.432;2023-02-10T13:42:21;97098.56;;;3.88;40.67
41686;BME280;27370;42.764;23.432;2023-02-10T13:44:59;97095.44;;;3.86;42.51
41686;BME280;27370;42.764;23.432;2023-02-10T13:50:01;97089.16;;;3.52;40.87
41686;BME280;27370;42.764;23.432;2023-02-10T13:52:30;97088.84;;;3.16;40.33
41686;BME280;27370;42.764;23.432;2023-02-10T13:55:00;97090.84;;;2.98;40.01
41686;BME280;27370;42.764;23.432;2023-02-10T13:57:32;97094.09;;;2.57;41.05
41686;BME280;27370;42.764;23.432;2023-02-10T14:00:19;97098.22;;;2.11;41.23
41686;BME280;27370;42.764;23.432;2023-02-10T14:03:18;97102.13;;;2.31;42.30
41686;BME280;27370;42.764;23.432;2023-02-10T14:06:01;97097.25;;;2.41;43.72
41686;BME280;27370;42.764;23.432;2023-02-10T14:08:44;97090.81;;;2.34;43.49
41686;BME280;27370;42.764;23.432;2023-02-10T14:13:42;97088.47;;;1.89;43.29
41686;BME280;27370;42.764;23.432;2023-02-10T14:18:42;97082.50;;;1.83;43.00
41686;BME280;27370;42.764;23.432;2023-02-10T14:21:14;97094.13;;;2.05;40.85
41686;BME280;27370;42.764;23.432;2023-02-10T14:23:53;97076.06;;;1.84;39.52
41686;BME280;27370;42.764;23.432;2023-02-10T14:26:22;97085.16;;;2.01;40.44
41686;BME280;27370;42.764;23.432;2023-02-10T14:28:50;97080.94;;;2.08;40.09
41686;BME280;27370;42.764;23.432;2023-02-10T14:31:26;97092.38;;;2.00;42.79
41686;BME280;27370;42.764;23.432;2023-02-10T14:33:58;97078.38;;;2.03;40.92
41686;BME280;27370;42.764;23.432;2023-02-10T14:36:24;97074.00;;;1.99;43.67
41686;BME280;27370;42.764;23.432;2023-02-10T14:39:02;97082.31;;;1.97;41.69
41686;BME280;27370;42.764;23.432;2023-02-10T14:41:31;97075.41;;;1.96;42.68
41686;BME280;27370;42.764;23.432;2023-02-10T14:43:57;97068.03;;;1.93;44.16
41686;BME280;27370;42.764;23.432;2023-02-10T14:46:27;97068.03;;;1.84;44.69
41686;BME280;27370;42.764;23.432;2023-02-10T14:49:01;97069.59;;;2.03;43.50
41686;BME280;27370;42.764;23.432;2023-02-10T14:51:29;97071.78;;;2.01;44.44
41686;BME280;27370;42.764;23.432;2023-02-10T14:54:07;97075.41;;;1.79;44.99
41686;BME280;27370;42.764;23.432;2023-02-10T14:56:32;97076.34;;;1.74;44.62